createdAt,value
2017-09-08T00:00:28.120Z,23.03
2017-09-08T00:03:00.048Z,22.99
2017-09-08T00:05:31.523Z,23.15
2017-09-08T00:08:03.696Z,22.83
2017-09-08T00:10:35.584Z,22.92
2017-09-08T00:13:07.322Z,22.77
2017-09-08T00:15:39.018Z,23.02
2017-09-08T00:18:13.146Z,22.93
2017-09-08T00:20:44.650Z,22.83
2017-09-08T00:23:16.419Z,22.83
2017-09-08T00:25:47.870Z,22.91
2017-09-08T00:28:19.865Z,22.93
2017-09-08T00:30:51.593Z,22.83
2017-09-08T00:33:23.417Z,22.83
2017-09-08T00:35:55.137Z,22.82
2017-09-08T00:38:26.747Z,22.72
2017-09-08T00:40:58.816Z,23.09
2017-09-08T00:43:30.897Z,23.02
2017-09-08T00:46:02.657Z,22.95
2017-09-08T00:48:34.621Z,22.91
2017-09-08T00:51:06.489Z,22.99
2017-09-08T00:53:38.515Z,23.18
2017-09-08T00:56:11.920Z,22.98
2017-09-08T00:58:43.595Z,23.32
2017-09-08T01:01:16.773Z,23.53
2017-09-08T01:03:48.456Z,23.83
2017-09-08T01:06:19.742Z,23.97
2017-09-08T01:08:51.417Z,24.02
2017-09-08T01:11:23.123Z,24.06
2017-09-08T01:13:55.030Z,24.17
2017-09-08T01:16:26.766Z,24.22
2017-09-08T01:18:58.637Z,24.11
2017-09-08T01:21:30.608Z,24.36
2017-09-08T01:24:04.120Z,24.39
2017-09-08T01:26:36.100Z,23.91
2017-09-08T01:29:08.514Z,24.37
2017-09-08T01:31:40.920Z,24.48
2017-09-08T01:34:12.764Z,24.43
2017-09-08T01:36:44.482Z,24.42
2017-09-08T01:39:17.505Z,23.93
2017-09-08T01:41:49.070Z,24.59
2017-09-08T01:44:21.000Z,24.66
2017-09-08T01:46:52.641Z,24.50
2017-09-08T01:49:24.473Z,24.71
2017-09-08T01:51:56.014Z,24.73
2017-09-08T01:54:27.897Z,24.79
2017-09-08T01:56:59.170Z,24.62
2017-09-08T01:59:30.838Z,24.53
2017-09-08T02:02:02.571Z,24.72
2017-09-08T02:04:34.290Z,24.75
2017-09-08T02:07:06.262Z,24.85
2017-09-08T02:09:37.953Z,24.82
2017-09-08T02:12:11.512Z,24.77
2017-09-08T02:14:45.015Z,24.76
2017-09-08T02:17:18.131Z,24.70
2017-09-08T02:19:50.085Z,24.66
2017-09-08T02:22:21.626Z,24.77
2017-09-08T02:24:53.363Z,24.91
2017-09-08T02:27:25.474Z,24.90
2017-09-08T02:29:57.471Z,24.93
2017-09-08T02:32:29.490Z,24.93
2017-09-08T02:35:01.248Z,24.96
2017-09-08T02:37:32.933Z,25.08
2017-09-08T02:40:04.711Z,25.00
2017-09-08T02:42:37.019Z,25.06
2017-09-08T02:45:11.369Z,25.00
2017-09-08T02:47:43.238Z,25.11
2017-09-08T02:50:18.113Z,24.89
2017-09-08T02:52:50.076Z,25.19
2017-09-08T02:55:21.566Z,25.02
2017-09-08T02:57:52.986Z,25.11
2017-09-08T03:00:24.613Z,25.19
2017-09-08T03:02:56.287Z,25.11
2017-09-08T03:05:27.955Z,25.28
2017-09-08T03:07:59.999Z,25.28
2017-09-08T03:10:31.644Z,25.32
2017-09-08T03:13:03.479Z,25.33
2017-09-08T03:15:35.528Z,25.26
2017-09-08T03:18:07.372Z,25.26
2017-09-08T03:20:39.585Z,25.26
2017-09-08T03:23:14.297Z,25.26
2017-09-08T03:25:46.020Z,25.29
2017-09-08T03:28:17.947Z,25.29
2017-09-08T03:30:49.698Z,25.26
2017-09-08T03:33:21.542Z,25.17
2017-09-08T03:35:53.355Z,25.32
2017-09-08T03:38:25.137Z,25.33
2017-09-08T03:40:57.321Z,25.26
2017-09-08T03:43:28.717Z,25.40
2017-09-08T03:46:00.517Z,25.17
2017-09-08T03:48:32.897Z,24.63
2017-09-08T03:51:04.640Z,25.39
2017-09-08T03:53:36.471Z,25.44
2017-09-08T03:56:07.752Z,25.25
2017-09-08T03:58:38.934Z,25.02
2017-09-08T04:01:13.305Z,25.38
2017-09-08T04:03:44.808Z,25.47
2017-09-08T04:06:17.269Z,24.77
2017-09-08T04:08:48.798Z,25.37
2017-09-08T04:11:20.623Z,25.39
2017-09-08T04:13:52.288Z,25.40
2017-09-08T04:16:23.971Z,25.42
2017-09-08T04:18:55.904Z,25.18
2017-09-08T04:21:27.601Z,25.38
2017-09-08T04:23:59.061Z,25.32
2017-09-08T04:26:30.647Z,25.32
2017-09-08T04:29:02.272Z,25.27
2017-09-08T04:31:34.779Z,25.42
2017-09-08T04:34:05.891Z,25.39
2017-09-08T04:36:37.398Z,25.32
2017-09-08T04:39:08.739Z,25.44
2017-09-08T04:41:41.732Z,25.33
2017-09-08T04:44:15.398Z,25.47
2017-09-08T04:46:47.317Z,25.47
2017-09-08T04:49:19.317Z,25.48
2017-09-08T04:51:50.886Z,25.47
2017-09-08T04:54:22.870Z,25.50
2017-09-08T04:56:54.498Z,25.52
2017-09-08T04:59:26.284Z,25.51
2017-09-08T05:01:58.034Z,25.44
2017-09-08T05:04:30.442Z,25.51
2017-09-08T05:07:02.754Z,25.43
2017-09-08T05:09:36.129Z,25.59
2017-09-08T05:12:07.506Z,25.54
2017-09-08T05:14:40.001Z,25.62
2017-09-08T05:17:11.741Z,25.29
2017-09-08T05:19:43.454Z,25.82
2017-09-08T05:22:18.138Z,25.84
2017-09-08T05:24:53.999Z,25.85
2017-09-08T05:27:25.096Z,25.87
2017-09-08T05:29:56.900Z,25.91
2017-09-08T05:32:29.562Z,25.93
2017-09-08T05:35:01.254Z,25.92
2017-09-08T05:37:34.003Z,25.96
2017-09-08T05:40:06.922Z,25.37
2017-09-08T05:42:38.220Z,25.99
2017-09-08T05:45:11.054Z,25.87
2017-09-08T05:47:42.549Z,26.00
2017-09-08T05:50:25.135Z,26.01
2017-09-08T05:52:56.861Z,25.92
2017-09-08T05:55:28.102Z,26.00
2017-09-08T05:57:59.099Z,26.05
2017-09-08T06:00:31.701Z,26.07
2017-09-08T06:03:02.825Z,26.06
2017-09-08T06:05:35.760Z,25.92
2017-09-08T06:08:08.442Z,26.07
2017-09-08T06:10:40.706Z,25.91
2017-09-08T06:13:13.750Z,26.11
2017-09-08T06:15:46.073Z,25.50
2017-09-08T06:18:17.903Z,26.13
2017-09-08T06:20:49.330Z,26.05
2017-09-08T06:23:20.681Z,26.13
2017-09-08T06:25:54.491Z,26.22
2017-09-08T06:28:25.671Z,26.26
2017-09-08T06:30:56.957Z,25.93
2017-09-08T06:33:30.589Z,26.30
2017-09-08T06:36:03.507Z,26.31
2017-09-08T06:38:35.009Z,26.31
2017-09-08T06:41:07.103Z,26.32
2017-09-08T06:43:38.423Z,26.31
2017-09-08T06:46:14.638Z,25.68
2017-09-08T06:48:46.483Z,26.27
2017-09-08T06:51:19.608Z,25.08
2017-09-08T06:53:51.738Z,26.31
2017-09-08T06:56:23.252Z,26.32
2017-09-08T06:58:56.163Z,26.31
2017-09-08T07:01:28.080Z,26.32
2017-09-08T07:04:00.062Z,26.33
2017-09-08T07:06:31.682Z,26.34
2017-09-08T07:09:03.104Z,26.34
2017-09-08T07:11:34.854Z,26.33
2017-09-08T07:14:10.914Z,26.34
2017-09-08T07:16:43.466Z,26.35
2017-09-08T07:19:23.309Z,26.35
2017-09-08T07:21:57.094Z,26.36
2017-09-08T07:24:31.336Z,26.36
2017-09-08T07:27:08.737Z,26.25
2017-09-08T07:29:45.103Z,26.37
2017-09-08T07:32:17.484Z,26.39
2017-09-08T07:34:49.819Z,26.36
2017-09-08T07:37:21.572Z,26.01
2017-09-08T07:39:53.319Z,26.35
2017-09-08T07:42:27.991Z,26.34
2017-09-08T07:45:00.892Z,26.35
2017-09-08T07:47:36.890Z,26.36
2017-09-08T07:50:08.126Z,26.36
2017-09-08T07:52:39.950Z,26.36
2017-09-08T07:55:14.597Z,26.37
2017-09-08T07:57:46.880Z,26.37
2017-09-08T08:00:18.804Z,26.38
2017-09-08T08:02:50.793Z,26.38
2017-09-08T08:05:22.446Z,26.37
2017-09-08T08:07:53.767Z,26.39
2017-09-08T08:10:25.340Z,26.39
2017-09-08T08:12:56.455Z,26.39
2017-09-08T08:15:28.362Z,26.40
2017-09-08T08:17:59.637Z,26.41
2017-09-08T08:20:31.799Z,26.41
2017-09-08T08:23:04.066Z,26.40
2017-09-08T08:25:35.766Z,26.43
2017-09-08T08:28:07.414Z,26.43
2017-09-08T08:30:39.764Z,25.63
2017-09-08T08:33:12.538Z,26.46
2017-09-08T08:35:44.624Z,26.45
2017-09-08T08:38:18.111Z,26.45
2017-09-08T08:40:50.514Z,26.45
2017-09-08T08:43:25.281Z,26.46
2017-09-08T08:45:57.386Z,26.47
2017-09-08T08:48:30.875Z,26.48
2017-09-08T08:51:02.394Z,26.47
2017-09-08T08:53:34.072Z,26.47
2017-09-08T08:56:07.417Z,26.46
2017-09-08T08:58:38.666Z,26.22
2017-09-08T09:01:11.732Z,26.47
2017-09-08T09:03:43.310Z,26.48
2017-09-08T09:06:16.887Z,26.47
2017-09-08T09:08:51.278Z,26.34
2017-09-08T09:11:23.107Z,26.45
2017-09-08T09:13:55.145Z,26.33
2017-09-08T09:16:27.305Z,26.48
2017-09-08T09:18:59.043Z,26.48
2017-09-08T09:21:30.551Z,26.47
2017-09-08T09:24:02.597Z,26.47
2017-09-08T09:26:34.096Z,26.48
2017-09-08T09:29:05.593Z,26.35
2017-09-08T09:31:37.088Z,26.47
2017-09-08T09:34:08.316Z,26.12
2017-09-08T09:36:41.230Z,26.46
2017-09-08T09:39:15.249Z,26.49
2017-09-08T09:41:46.346Z,26.50
2017-09-08T09:44:18.406Z,26.52
2017-09-08T09:46:49.478Z,26.52
2017-09-08T09:49:21.234Z,26.05
2017-09-08T09:51:52.358Z,26.53
2017-09-08T09:54:23.836Z,26.43
2017-09-08T09:56:55.481Z,26.53
2017-09-08T09:59:26.626Z,26.53
2017-09-08T10:01:58.047Z,26.53
2017-09-08T10:04:29.996Z,26.42
2017-09-08T10:07:01.294Z,26.54
2017-09-08T10:09:33.818Z,26.43
2017-09-08T10:12:05.176Z,26.56
2017-09-08T10:14:40.168Z,26.43
2017-09-08T10:17:14.825Z,26.46
2017-09-08T10:19:46.510Z,26.22
2017-09-08T10:22:18.314Z,26.45
2017-09-08T10:24:49.504Z,26.56
2017-09-08T10:27:21.310Z,26.32
2017-09-08T10:29:53.297Z,26.47
2017-09-08T10:32:24.786Z,26.56
2017-09-08T10:34:59.667Z,26.57
2017-09-08T10:37:31.019Z,26.59
2017-09-08T10:40:03.884Z,26.37
2017-09-08T10:42:36.818Z,26.39
2017-09-08T10:45:11.853Z,26.61
2017-09-08T10:47:44.903Z,26.62
2017-09-08T10:50:20.038Z,26.63
2017-09-08T10:52:51.920Z,26.63
2017-09-08T10:55:23.095Z,26.61
2017-09-08T10:57:55.948Z,26.38
2017-09-08T11:00:27.066Z,26.26
2017-09-08T11:02:58.115Z,26.51
2017-09-08T11:05:29.828Z,26.62
2017-09-08T11:08:01.833Z,26.61
2017-09-08T11:10:33.003Z,26.37
2017-09-08T11:13:04.252Z,26.50
2017-09-08T11:15:37.580Z,26.61
2017-09-08T11:18:11.144Z,26.36
2017-09-08T11:20:42.973Z,26.49
2017-09-08T11:23:15.007Z,26.61
2017-09-08T11:25:47.622Z,26.48
2017-09-08T11:28:19.745Z,26.38
2017-09-08T11:30:51.767Z,26.25
2017-09-08T11:33:28.542Z,26.48
2017-09-08T11:38:07.604Z,26.48
2017-09-08T11:40:39.034Z,26.51
2017-09-08T11:43:10.728Z,26.42
2017-09-08T11:45:42.037Z,26.56
2017-09-08T11:48:13.918Z,26.58
2017-09-08T11:50:45.168Z,26.58
2017-09-08T11:53:18.724Z,26.59
2017-09-08T11:55:50.906Z,26.59
2017-09-08T11:58:23.228Z,26.59
2017-09-08T12:00:55.010Z,26.60
2017-09-08T12:03:26.652Z,26.61
2017-09-08T12:06:07.906Z,26.61
2017-09-08T12:08:41.657Z,26.50
2017-09-08T12:11:15.136Z,26.62
2017-09-08T12:13:49.661Z,26.16
2017-09-08T12:16:21.630Z,26.63
2017-09-08T12:18:53.636Z,26.63
2017-09-08T12:21:26.730Z,26.52
2017-09-08T12:23:58.794Z,26.64
2017-09-08T12:26:32.647Z,26.65
2017-09-08T12:29:06.136Z,26.65
2017-09-08T12:31:37.616Z,26.53
2017-09-08T12:34:09.775Z,26.65
2017-09-08T12:36:42.448Z,26.65
2017-09-08T12:39:17.038Z,26.66
2017-09-08T12:41:52.239Z,26.02
2017-09-08T12:44:23.835Z,26.56
2017-09-08T12:46:55.274Z,26.67
2017-09-08T12:49:28.581Z,26.56
2017-09-08T12:52:01.009Z,26.56
2017-09-08T12:54:35.072Z,26.68
2017-09-08T12:57:08.289Z,26.68
2017-09-08T12:59:41.185Z,26.70
2017-09-08T13:02:16.911Z,26.70
2017-09-08T13:04:53.084Z,26.58
2017-09-08T13:07:25.191Z,26.69
2017-09-08T13:09:56.297Z,26.45
2017-09-08T13:12:28.154Z,26.69
2017-09-08T13:14:59.221Z,26.69
2017-09-08T13:17:31.547Z,26.57
2017-09-08T13:20:03.274Z,26.69
2017-09-08T13:22:34.410Z,26.69
2017-09-08T13:25:05.071Z,26.69
2017-09-08T13:27:36.554Z,26.69
2017-09-08T13:30:16.662Z,26.69
2017-09-08T13:32:55.887Z,26.71
2017-09-08T13:35:28.174Z,26.72
2017-09-08T13:38:00.578Z,26.71
2017-09-08T13:40:35.580Z,26.70
2017-09-08T13:45:53.122Z,26.70
2017-09-08T13:48:24.854Z,26.70
2017-09-08T13:50:57.280Z,26.00
2017-09-08T13:53:29.197Z,26.69
2017-09-08T13:56:05.236Z,26.67
2017-09-08T13:58:50.856Z,26.68
2017-09-08T14:01:22.842Z,26.67
2017-09-08T14:03:54.831Z,26.54
2017-09-08T14:06:26.371Z,26.66
2017-09-08T14:08:59.072Z,26.66
2017-09-08T14:11:30.867Z,26.66
2017-09-08T14:14:02.847Z,26.66
2017-09-08T14:16:34.075Z,26.65
2017-09-08T14:19:06.124Z,26.41
2017-09-08T14:21:38.192Z,26.54
2017-09-08T14:24:09.741Z,26.30
2017-09-08T14:26:42.382Z,26.64
2017-09-08T14:29:14.557Z,26.54
2017-09-08T14:31:45.895Z,26.40
2017-09-08T14:34:18.318Z,25.57
2017-09-08T14:36:51.380Z,26.65
2017-09-08T14:39:25.086Z,26.64
2017-09-08T14:41:57.080Z,26.64
2017-09-08T14:44:28.429Z,26.53
2017-09-08T14:47:00.639Z,26.64
2017-09-08T14:49:32.415Z,26.63
2017-09-08T14:52:04.470Z,26.63
2017-09-08T14:54:35.982Z,26.51
2017-09-08T14:57:07.578Z,26.39
2017-09-08T14:59:39.755Z,26.63
2017-09-08T15:02:13.312Z,26.64
2017-09-08T15:04:45.014Z,26.63
2017-09-08T15:07:18.909Z,25.81
2017-09-08T15:09:51.675Z,26.63
2017-09-08T15:12:28.402Z,26.65
2017-09-08T15:15:01.089Z,26.42
2017-09-08T15:17:39.220Z,26.56
2017-09-08T15:20:16.272Z,26.46
2017-09-08T15:22:47.932Z,26.66
2017-09-08T15:25:23.955Z,26.44
2017-09-08T15:27:56.229Z,26.68
2017-09-08T15:30:28.365Z,26.67
2017-09-08T15:33:33.943Z,26.33
2017-09-08T15:36:23.852Z,26.74
2017-09-08T15:44:22.442Z,26.63
2017-09-08T15:47:15.305Z,26.16
2017-09-08T15:53:15.844Z,26.77
2017-09-08T15:55:49.095Z,26.43
2017-09-08T16:03:32.186Z,26.32
2017-09-08T16:06:04.488Z,26.64
2017-09-08T16:08:36.886Z,26.73
2017-09-08T16:11:08.409Z,26.69
2017-09-08T16:13:40.538Z,26.64
2017-09-08T16:16:14.791Z,26.51
2017-09-08T16:18:46.117Z,26.64
2017-09-08T16:21:17.530Z,26.15
2017-09-08T16:23:48.751Z,26.50
2017-09-08T16:26:21.735Z,26.62
2017-09-08T16:28:54.351Z,26.49
2017-09-08T16:31:27.481Z,26.61
2017-09-08T16:33:59.190Z,26.61
2017-09-08T16:36:31.783Z,26.60
2017-09-08T16:39:03.786Z,26.49
2017-09-08T16:41:35.073Z,26.60
2017-09-08T16:44:07.210Z,26.60
2017-09-08T16:46:39.660Z,26.59
2017-09-08T16:49:31.238Z,25.93
2017-09-08T16:52:57.636Z,26.44
2017-09-08T16:55:58.816Z,26.58
2017-09-08T16:58:43.431Z,26.25
2017-09-08T17:04:22.758Z,26.16
2017-09-08T17:14:38.011Z,26.28
2017-09-08T17:28:01.818Z,25.91
2017-09-08T18:20:14.085Z,26.13
2017-09-08T18:22:49.518Z,25.77
2017-09-08T18:25:20.991Z,26.36
2017-09-08T18:27:52.618Z,26.37
2017-09-08T18:30:23.809Z,26.26
2017-09-08T18:32:55.763Z,26.39
2017-09-08T18:35:27.921Z,26.39
2017-09-08T18:37:59.399Z,26.41
2017-09-08T18:40:30.597Z,26.42
2017-09-08T18:43:01.968Z,26.41
2017-09-08T18:45:34.977Z,26.42
2017-09-08T18:48:06.885Z,26.44
2017-09-08T18:50:38.208Z,26.34
2017-09-08T18:53:12.632Z,26.43
2017-09-08T18:55:44.630Z,26.28
2017-09-08T18:58:15.747Z,26.35
2017-09-08T19:00:47.160Z,26.27
2017-09-08T19:03:20.187Z,26.42
2017-09-08T19:05:51.346Z,26.43
2017-09-08T19:08:22.984Z,26.44
2017-09-08T19:10:55.160Z,26.19
2017-09-08T19:13:26.710Z,26.44
2017-09-08T19:15:59.118Z,26.43
2017-09-08T19:18:31.691Z,26.32
2017-09-08T19:21:03.303Z,26.33
2017-09-08T19:23:35.806Z,26.46
2017-09-08T19:26:07.600Z,26.45
2017-09-08T19:28:38.726Z,26.32
2017-09-08T19:31:09.857Z,26.19
2017-09-08T19:33:41.505Z,26.31
2017-09-08T19:36:15.947Z,26.33
2017-09-08T19:38:47.352Z,26.32
2017-09-08T19:41:19.393Z,26.30
2017-09-08T19:43:51.443Z,26.24
2017-09-08T19:46:24.207Z,26.45
2017-09-08T19:48:56.347Z,26.13
2017-09-08T19:51:27.955Z,26.47
2017-09-08T19:53:59.175Z,26.34
2017-09-08T19:56:30.653Z,26.46
2017-09-08T19:59:02.138Z,26.45
2017-09-08T20:01:33.369Z,26.46
2017-09-08T20:04:04.962Z,26.32
2017-09-08T20:06:37.136Z,26.20
2017-09-08T20:09:08.985Z,26.44
2017-09-08T20:11:40.641Z,26.45
2017-09-08T20:14:12.126Z,26.43
2017-09-08T20:16:44.089Z,26.43
2017-09-08T20:19:18.897Z,26.32
2017-09-08T20:21:51.463Z,26.44
2017-09-08T20:24:22.664Z,26.31
2017-09-08T20:26:54.645Z,26.30
2017-09-08T20:29:25.735Z,26.19
2017-09-08T20:31:57.080Z,26.44
2017-09-08T20:34:29.355Z,26.44
2017-09-08T20:37:00.746Z,26.43
2017-09-08T20:39:32.393Z,26.43
2017-09-08T20:42:04.565Z,26.44
2017-09-08T20:44:35.765Z,26.43
2017-09-08T20:47:07.089Z,26.43
2017-09-08T20:49:38.171Z,26.30
2017-09-08T20:52:09.354Z,26.42
2017-09-08T20:54:41.076Z,26.43
2017-09-08T20:57:14.983Z,26.33
2017-09-08T20:59:46.621Z,26.43
2017-09-08T21:02:18.061Z,26.33
2017-09-08T21:04:49.793Z,26.41
2017-09-08T21:07:21.787Z,26.30
2017-09-08T21:09:54.506Z,26.42
2017-09-08T21:12:28.312Z,26.43
2017-09-08T21:15:00.240Z,26.44
2017-09-08T21:17:31.696Z,26.43
2017-09-08T21:20:04.402Z,26.42
2017-09-08T21:22:35.857Z,26.43
2017-09-08T21:25:07.563Z,26.45
2017-09-08T21:27:39.052Z,26.44
2017-09-08T21:30:13.640Z,26.44
2017-09-08T21:32:44.807Z,26.45
2017-09-08T21:35:17.119Z,25.87
2017-09-08T21:37:48.969Z,26.44
2017-09-08T21:40:20.832Z,26.33
2017-09-08T21:42:52.384Z,26.44
2017-09-08T21:45:24.363Z,26.42
2017-09-08T21:47:55.557Z,26.42
2017-09-08T21:50:27.889Z,26.42
2017-09-08T21:52:59.938Z,26.30
2017-09-08T21:55:31.099Z,26.39
2017-09-08T21:58:03.538Z,26.40
2017-09-08T22:00:35.989Z,26.24
2017-09-08T22:05:47.051Z,26.20
2017-09-08T22:51:09.031Z,25.66
2017-09-08T22:53:41.069Z,25.88
2017-09-08T22:56:14.848Z,26.01
2017-09-08T22:58:46.210Z,26.11
2017-09-08T23:01:17.606Z,26.18
2017-09-08T23:03:48.746Z,26.23
2017-09-08T23:06:20.020Z,26.28
2017-09-08T23:08:51.561Z,26.31
2017-09-08T23:11:22.763Z,26.36
2017-09-08T23:13:53.953Z,26.38
2017-09-08T23:16:25.691Z,26.31
2017-09-08T23:18:56.990Z,26.43
2017-09-08T23:21:28.646Z,26.40
2017-09-08T23:24:00.458Z,26.44
2017-09-08T23:26:32.545Z,26.45
2017-09-08T23:29:04.131Z,26.45
2017-09-08T23:31:35.879Z,26.48
2017-09-08T23:34:07.440Z,26.48
2017-09-08T23:36:39.226Z,26.48
2017-09-08T23:39:13.877Z,26.24
2017-09-08T23:41:45.497Z,26.49
2017-09-08T23:44:17.156Z,26.53
2017-09-08T23:46:49.268Z,26.52
2017-09-08T23:49:21.775Z,26.52
2017-09-08T23:51:54.042Z,26.52
2017-09-08T23:54:25.834Z,26.54
2017-09-08T23:56:57.323Z,26.54
2017-09-08T23:59:29.154Z,26.54
